Extreme weather reports worldwide

Low visibility

Station
 
Location
 
Name
 
Wind
Knots
Gust
Knots
Vis
SM
Temp/Dew
C
Baro
inHg
METAR
 
LIRT 4 0 6/3 30.18 LIRT 251155Z 09004KT 0000 FG VV/// 06/03 Q1022 RMK MON INVIS VAL INVIS VIS MIN 0000
LKNA Náměšť, CZ Náměšť Air Base 7 0.06 -1/-1 30.21 LKNA 251230Z 12007KT 0100 R30/0300N -FZDZ FZFG VV002 M01/M01 Q1023 NOSIG RMK RED RED
TNM SCRM Isla Rey Jorge, AQ Teniente Rodolfo Marsh Martin Base 8 0.06 -1/-1 29.03 SCRM 251200Z 30008KT 0100 FG VV002 M01/M01 Q0983 NOSIG
KMWN 22 37 0.06 -12/-12 KMWN 251153Z 24022G37KT 1/16SM -SN FZFG VV001 M12/M12 RMK PRESFR VRY LGT ICG 60003 70014 4/006 931002 11082 21129
FKS RJSF Sukagawa, JP Fukushima Airport 5 0.12 7/7 30.12 RJSF 251126Z 36005KT 0200 R01/0300V0900D FG SCT001 BKN002 07/07 Q1020 RMK 3ST001 7ST002 A3013

Station
 
Location
 
Name
 
Wind
Knots
Gust
Knots
Vis
SM
Temp/Dew
C
Baro
inHg
METAR
 
LIQO 4 0.19 10/9 30.15 LIQO 251155Z 13004KT 0300 FG VV/// 10/09 Q1021 RMK VAL INVIS NC VIS MIN 0300
ETSL Lagerlechfeld, DE Lechfeld Air Base 3 0.22 0/-1 30.12 ETSL 251220Z 14003KT 0350 FZFG VV000 M00/M01 Q1020 RED RED
UNU KUNU Juneau, US Dodge County Airport 3 0.25 2/2 29.86 KUNU 251235Z AUTO 36003KT M1/4SM FG OVC002 02/02 A2986 RMK AO2 T00240024
KFFX Fremont, US Fremont Municipal Airport 3 0.25 2/2 29.88 KFFX 251235Z AUTO 09003KT 1/4SM FG OVC003 03/03 A2988 RMK AO2 T00260026
KEFT Monroe, US Monroe Municipal Airport 9 0.25 4/4 29.79 KEFT 251235Z AUTO 01009KT 1/4SM -RA OVC001 05/05 A2979 RMK AO2 T00490045
KC29 7 0.25 3/2 29.83 KC29 251235Z AUTO 02007KT 1/4SM OVC003 03/03 A2983 RMK AO1 T00310027
AXG KAXA Algona, US Algona Municipal Airport 7 14 0.25 1/0 29.85 KAXA 251235Z AUTO 01007G14KT 1/4SM FG OVC002 01/00 A2985 RMK A01
K2D5 11 0.25 -6/-6 29.91 K2D5 251235Z AUTO 18011KT 1/4SM FZFG OVC003 M06/M06 A2991 RMK AO2
KSXT 4 0.25 0/-1 30.08 KSXT 251233Z AUTO 22004KT 1/4SM FZFG FEW003 BKN010 OVC029 M01/M01 A3008 RMK AO2 T10061011 $
SGE EDGS DE Siegerland Airport 9 0.25 2/2 30.03 EDGS 251220Z 18009KT 140V200 0400 R13/0550V0800U FG VV/// 02/02 Q1017
K3S8 0 0.25 4/3 30.20 K3S8 251215Z AUTO 00000KT 1/4SM FG OVC002 04/03 A3020 RMK AO2
KLW PAKW Klawock, US Klawock Airport 0 0.25 0/0 29.89 PAKW 251203Z AUTO 00000KT 1/4SM FG SCT001 OVC016 00/M01 A2989 RMK AO2 T00001006 TSNO PNO
SMK PAMK St Michael, US St Michael Airport 18 0.25 0/-1 28.73 PAMK 251156Z AUTO 10018KT M1/4SM FG OVC065 01/M01 A2873 RMK AO2 PK WND 10027/1100 RAE1057B42E52 SLP729 P0000 60000 T00061011 10017 20006 56029 FZRANO
KSMP 4 0.25 -1/-2 29.83 KSMP 251156Z AUTO VRB04KT 1/4SM SN FZFG VV003 M01/M02 A2983 RMK AO2 SLP124 P0010 60056 70103 T10111022 11006 21011 51010
APC KAPC Napa, US Napa County Airport 3 0.25 2/1 30.15 KAPC 251154Z AUTO 03003KT M1/4SM FG VV001 03/02 A3015 RMK AO2 SLP200 T00280017 10078 20017 50000
STS KSTS Santa Rosa, US Charles M. Schulz Sonoma County Airport 4 0.25 3/3 30.16 KSTS 251153Z AUTO 33004KT 1/4SM FG VV001 04/03 A3016 RMK AO2 SLP206 T00390033 10067 20033 53004
LAX KLAX Los Angeles, US Los Angeles International Airport 5 0.25 11/11 30.08 KLAX 251153Z 04005KT 1/4SM R25L/P6000FT FG VV002 12/11 A3008 RMK AO2 SLP185 VIS E 1/8 T01170111 10144 20111 58002
UES KUES Waukesha, US Waukesha County Airport 0 0.25 4/4 29.83 KUES 251145Z 00000KT 1/4SM FG OVC002 04/04 A2983
GAC MHGS Gracias, HN Celaque Airport 0 0.31 18/18 MHGS 251200Z 00000KT 0500 FG VV/// 18/18
KLU LOWK Klagenfurt am Wörthersee, AT Klagenfurt Airport 3 0.34 -1/-2 30.24 LOWK 251220Z 11003KT 050V160 0550 R10/1200D R28/0600N FZFG BKN002 M01/M02 Q1024 R10L/19//94 TEMPO 1200 FZBCFG BKN003
ISB OPIS Islamabad, PK Islamabad International Airport 6 0.37 12/12 30.09 OPIS 251225Z 31006KT 0600 R28L/1700 RMID/1300 R10R/1000 -RA SCT040 OVC100 12/12 Q1019 TEMPO 0300
CYZY Mackenzie, CA Mackenzie Airport 0 0.38 -6/-6 29.69 CYZY 251200Z AUTO 00000KT 3/8SM FZFG OVC003 M06/M06 A2969 RMK SLP091
YXJ CYXJ Fort St.John, CA Fort St John Airport 8 0.38 -9/-10 29.61 CYXJ 251200Z 34008KT 3/8SM R30/1400V2000FT/N FZFG FEW140 M09/M10 A2961 RMK FG3AC1 SLP067
HDF EDAH Heringsdorf, DE Heringsdorf Airport 8 0.4 1/0 30.09 EDAH 251220Z 19008KT 0650 R10/1000N FG VV/// 01/00 Q1019
UTFF 0 0.47 2/-2 30.30 UTFF 251200Z 00000KT 0750 MIFG NSC 02/M02 Q1026 R99/CLRD70
KY31 3 0.5 0/0 29.92 KY31 251235Z AUTO 17003KT 1/2SM FG OVC002 00/00 A2992 RMK AO2 T00030000
KEZS Shawano, US Shawano Municipal Airport 5 0.5 1/1 29.90 KEZS 251235Z AUTO 01005KT 1/2SM FG OVC002 01/01 A2990 RMK AO2 T00100010
KD55 0.5 -6/-6 29.78 KD55 251235Z AUTO 1/2SM FZFG OVC001 M06/M06 A2978 RMK AO2
LLX KCDA Lyndonville, US Caledonia County Airport 3 0.5 -7/-8 30.36 KCDA 251235Z AUTO 09003KT 1/2SM SN OVC005 M07/M08 A3036 RMK AO2 T10701080
KBAC 7 0.5 -6/-6 29.88 KBAC 251235Z AUTO 21007KT 1/2SM BR OVC002 M06/M06 A2988 RMK AO2
K57C 3 0.5 5/5 29.82 K57C 251235Z AUTO 05003KT 1/2SM FG OVC003 05/05 A2982 RMK AO2 T00500050
YQA CYQA Muskoka, CA Muskoka Airport 4 0.5 -3/-4 30.01 CYQA 251233Z AUTO 13004KT 1/2SM SN BKN009 OVC013 M03/M04 A3001 RMK SLP181
FLD KFLD Fond du Lac, US Fond du Lac County Airport 6 0.5 4/3 29.86 KFLD 251231Z AUTO 03006KT 1/2SM FG VV002 04/03 A2986 RMK AO2 T00440033
ETHL DE Laupheim Air Base 2 0.5 0/0 30.12 ETHL 251231Z VRB02KT 0800 R27/2900U FZFG VV001 M00/M00 Q1020 RED RED
YKM KYKM Yakima, US Yakima Air Terminal McAllister Field 0 0.5 -2/-3 29.94 KYKM 251230Z AUTO 00000KT 1/2SM R27/3000VP6000FT FZFG VV001 M02/M03 A2994 RMK AO2 I1000 T10221033
HIO KHIO Portland, US Portland Hillsboro Airport 0 0.5 2/2 30.04 KHIO 251230Z AUTO 00000KT 1/2SM R13R/2800V5000FT FG SCT021 BKN046 OVC060 03/03 A3004 RMK AO2 T00280028
YCO CYCO Kugluktuk, CA Kugluktuk Airport 4 0.5 -20/-22 29.76 CYCO 251230Z 22004KT 1/2SM -SN FZFG VV003 M20/M22 A2976 RMK FG8 SLP084
MKG KMKG Muskegon, US Muskegon County Airport 5 0.5 4/3 29.87 KMKG 251221Z 10005KT 1/2SM R32/2800V3000FT FG VV004 04/03 A2987 RMK AO2 T00440033
FEP KFEP Freeport, US Albertus Airport 6 0.5 5/5 29.80 KFEP 251215Z AUTO 07006KT 1/2SM FG OVC002 06/06 A2980 RMK AO2 T00550055
KDKB De Kalb, US De Kalb Taylor Municipal Airport 5 0.5 6/6 29.79 KDKB 251215Z AUTO 10005KT 1/2SM FG OVC002 06/06 A2979 RMK AO2 T00600060
HHR KHHR Hawthorne, US Jack Northrop Field Hawthorne Municipal Airport 0 0.5 11/10 30.08 KHHR 251205Z AUTO 00000KT 1/2SM FG VV002 11/11 A3008 RMK AO2 T01110106
YXT CYXT Terrace, CA Northwest Regional Airport Terrace-Kitimat 2 0.5 0/0 29.85 CYXT 251200Z VRB02KT 1/2SM FG VV005 00/00 A2985 RMK FG8 SLP119
YFB CYFB Iqaluit, CA Iqaluit Airport 34 43 0.5 -18/-21 29.40 CYFB 251200Z 32034G43KT 1/2SM R34/1400V2200FT/N -SN BLSN OVC007 M18/M21 A2940 RMK BLSN7SC1 VIS VRB 1/4-3/4 /S01/ SLP960
MVL KMVL Morrisville, US Morrisville Stowe State Airport 3 0.5 -5/-6 30.37 KMVL 251154Z AUTO 16003KT 1/2SM SN FZFG VV008 M06/M07 A3037 RMK AO2 SLP297 P0000 60000 T10561067 11050 21072 56005
KMLP 6 0.5 -3/-5 29.68 KMLP 251153Z AUTO VRB06KT 1/2SM SN FZFG OVC002 M03/M06 A2968 RMK AO2 SLP088 P0006 60025 70025 T10331056 11033 21039 56003